Time;durP1;ratioP1;P1;durP2;ratioP2;P2;SDS_P1;SDS_P2;PMS_P1;PMS_P2;Temp;Humidity;BMP_temperature;BMP_pressure;BME280_temperature;BME280_humidity;BME280_pressure;Samples;Min_cycle;Max_cycle;Signal;HPM_P1;HPM_P2
2022/08/31 00:04:12;;;;;;;4.85;2.00;;;;;;;18.47;89.32;101969.75;5275086;28;20044;-70
2022/08/31 00:06:43;;;;;;;3.30;1.67;;;;;;;18.53;88.92;101969.16;5275672;28;20013;-70
2022/08/31 00:09:14;;;;;;;4.05;1.92;;;;;;;18.43;90.58;101968.41;5276166;28;20017;-70
2022/08/31 00:11:46;;;;;;;4.75;1.88;;;;;;;18.49;90.88;101970.44;5257866;28;20032;-70
2022/08/31 00:14:17;;;;;;;5.70;2.28;;;;;;;18.43;91.04;101973.69;5275432;28;20019;-70
2022/08/31 00:16:48;;;;;;;4.88;2.05;;;;;;;18.42;91.77;101974.69;5259157;28;20115;-70
2022/08/31 00:19:20;;;;;;;4.40;2.08;;;;;;;18.42;92.10;101966.75;5258833;28;20020;-70
2022/08/31 00:21:51;;;;;;;3.50;2.20;;;;;;;18.35;92.89;101971.81;5275487;28;20078;-70
2022/08/31 00:24:22;;;;;;;5.55;2.30;;;;;;;18.32;92.84;101961.50;5276215;28;20024;-71
2022/08/31 00:26:54;;;;;;;4.13;2.03;;;;;;;18.31;93.22;101967.81;5275671;28;20051;-70
2022/08/31 00:29:25;;;;;;;2.83;1.87;;;;;;;18.30;93.57;101965.31;5277059;28;20099;-71
2022/08/31 00:31:56;;;;;;;4.32;2.00;;;;;;;18.32;93.34;101966.00;5276057;28;20023;-71
2022/08/31 00:34:27;;;;;;;4.78;1.92;;;;;;;18.25;94.21;101973.72;5277502;28;20031;-71
2022/08/31 00:36:59;;;;;;;4.45;2.20;;;;;;;18.26;94.31;101969.25;5274961;28;20024;-70
2022/08/31 00:39:31;;;;;;;3.38;1.92;;;;;;;18.27;93.47;101973.59;5274375;28;20056;-71
2022/08/31 00:42:06;;;;;;;3.45;2.15;;;;;;;18.35;94.05;101971.81;5274901;28;20021;-71
2022/08/31 00:44:39;;;;;;;4.47;1.80;;;;;;;18.24;94.78;101972.06;5275471;28;20044;-71
2022/08/31 00:47:10;;;;;;;2.90;2.00;;;;;;;18.23;94.86;101968.56;5274827;28;20036;-71
2022/08/31 00:49:45;;;;;;;3.45;1.77;;;;;;;18.26;95.01;101970.09;5274615;28;20054;-71
2022/08/31 00:52:21;;;;;;;5.32;2.15;;;;;;;18.23;95.78;101973.06;5274561;28;20025;-71
2022/08/31 00:55:04;;;;;;;4.18;2.20;;;;;;;18.33;95.12;101965.00;5257937;28;20032;-71
2022/08/31 00:57:40;;;;;;;3.65;2.10;;;;;;;18.18;95.31;101970.88;5275585;28;20035;-70
2022/08/31 01:00:18;;;;;;;3.80;2.00;;;;;;;18.18;96.48;101968.22;5273897;28;20044;-71
2022/08/31 01:02:49;;;;;;;5.57;2.30;;;;;;;18.18;96.33;101965.56;5271494;28;20511;-71
2022/08/31 01:05:21;;;;;;;2.53;1.90;;;;;;;18.13;96.40;101964.34;5274325;28;20016;-71
2022/08/31 01:07:53;;;;;;;4.75;2.10;;;;;;;18.14;96.09;101969.47;5272733;28;20020;-71
2022/08/31 01:10:29;;;;;;;6.03;2.30;;;;;;;18.17;96.68;101971.00;5272205;28;20027;-71
2022/08/31 01:13:00;;;;;;;4.43;1.85;;;;;;;18.03;96.60;101961.75;5271103;28;20542;-71
2022/08/31 01:15:33;;;;;;;4.13;2.15;;;;;;;18.00;97.70;101962.06;5274158;28;20151;-71
2022/08/31 01:18:05;;;;;;;5.18;2.10;;;;;;;18.04;97.08;101962.59;5275681;28;20032;-71
2022/08/31 01:20:59;;;;;;;4.50;2.07;;;;;;;18.18;96.11;101962.03;5254689;28;20451;-71
2022/08/31 01:23:38;;;;;;;4.72;2.00;;;;;;;18.12;96.85;101966.16;5273550;28;20029;-71
2022/08/31 01:26:17;;;;;;;4.15;2.05;;;;;;;18.04;98.28;101959.97;5273631;28;20024;-70
2022/08/31 01:28:51;;;;;;;2.47;1.80;;;;;;;17.96;98.18;101955.41;5272488;28;20036;-70
2022/08/31 01:31:40;;;;;;;4.47;1.95;;;;;;;17.99;97.78;101955.94;5257154;28;20032;-70
2022/08/31 01:34:12;;;;;;;3.83;1.85;;;;;;;17.86;98.53;101950.16;5271805;28;20028;-71
2022/08/31 01:36:46;;;;;;;5.95;2.17;;;;;;;17.91;99.12;101961.13;5274905;28;20047;-70
2022/08/31 01:39:18;;;;;;;5.60;1.70;;;;;;;17.85;98.82;101958.28;5272452;28;20029;-70
2022/08/31 01:41:50;;;;;;;3.78;2.05;;;;;;;17.91;98.17;101958.50;5272875;28;20119;-70
2022/08/31 01:44:23;;;;;;;3.40;2.25;;;;;;;17.90;98.56;101956.84;5271553;28;20112;-70
2022/08/31 01:46:55;;;;;;;4.43;2.20;;;;;;;17.86;98.70;101960.78;5272915;28;20039;-70
2022/08/31 01:49:26;;;;;;;5.00;2.10;;;;;;;17.83;98.98;101966.38;5274306;28;20406;-70
2022/08/31 01:51:58;;;;;;;4.35;2.20;;;;;;;17.89;98.49;101959.66;5273409;28;20479;-70
2022/08/31 01:54:29;;;;;;;6.68;1.92;;;;;;;17.83;99.52;101960.22;5271863;28;20454;-70
2022/08/31 01:57:01;;;;;;;5.70;1.95;;;;;;;17.84;98.92;101961.91;5272682;28;20043;-70
2022/08/31 01:59:32;;;;;;;4.03;2.15;;;;;;;17.73;99.07;101961.13;5273539;28;20025;-70
2022/08/31 02:02:04;;;;;;;3.35;2.13;;;;;;;17.83;98.43;101971.66;5290944;22;20155;-68
2022/08/31 02:04:35;;;;;;;4.30;1.90;;;;;;;17.82;98.67;101972.66;5269742;28;20029;-67
2022/08/31 02:07:06;;;;;;;3.85;1.80;;;;;;;17.81;98.11;101965.69;5256328;28;20163;-67
2022/08/31 02:09:37;;;;;;;3.42;1.95;;;;;;;17.87;97.51;101978.34;5267867;28;20020;-67
2022/08/31 02:12:09;;;;;;;3.53;1.70;;;;;;;17.82;98.19;101975.31;5274659;28;20033;-68
2022/08/31 02:14:40;;;;;;;3.97;1.95;;;;;;;17.78;98.39;101975.75;5275794;28;20032;-67
2022/08/31 02:17:12;;;;;;;4.60;1.90;;;;;;;17.81;98.56;101975.47;5273887;28;20169;-68
2022/08/31 02:19:43;;;;;;;5.90;2.25;;;;;;;17.77;98.09;101974.06;5273187;28;20115;-68
2022/08/31 02:22:14;;;;;;;4.22;2.03;;;;;;;17.77;98.73;101974.06;5275450;28;20020;-68
2022/08/31 02:24:45;;;;;;;4.68;2.00;;;;;;;17.70;99.20;101976.47;5276397;28;20020;-68
2022/08/31 02:27:17;;;;;;;2.38;1.70;;;;;;;17.72;98.53;101980.63;5273975;28;20016;-67
2022/08/31 02:29:48;;;;;;;3.72;2.13;;;;;;;17.66;99.20;101975.94;5274864;28;20375;-70
2022/08/31 02:32:22;;;;;;;4.90;2.33;;;;;;;17.71;98.87;101980.78;5275682;28;20043;-66
2022/08/31 02:34:54;;;;;;;5.78;2.03;;;;;;;17.65;99.58;101978.72;5275118;28;20421;-66
2022/08/31 02:37:25;;;;;;;3.75;1.95;;;;;;;17.68;99.18;101973.13;5276161;28;20027;-67
2022/08/31 02:39:56;;;;;;;4.50;1.90;;;;;;;17.71;98.82;101975.50;5275583;28;20055;-67
2022/08/31 02:42:29;;;;;;;3.10;1.80;;;;;;;17.66;98.94;101977.75;5275302;28;20016;-68
2022/08/31 02:45:00;;;;;;;3.55;2.10;;;;;;;17.66;99.39;101977.75;5278097;28;20016;-67
2022/08/31 02:47:32;;;;;;;2.60;1.65;;;;;;;17.62;99.37;101971.09;5278968;28;20489;-67
2022/08/31 02:50:05;;;;;;;3.50;2.00;;;;;;;17.57;99.84;101971.53;5279229;28;20081;-67
2022/08/31 02:52:36;;;;;;;3.47;1.58;;;;;;;17.56;99.76;101967.22;5276627;28;20020;-67
2022/08/31 02:55:08;;;;;;;2.40;1.80;;;;;;;17.54;99.54;101966.53;5278872;28;20029;-67
2022/08/31 02:57:39;;;;;;;4.60;1.98;;;;;;;17.51;99.87;101969.47;5280603;28;20048;-68
2022/08/31 03:00:11;;;;;;;2.92;2.00;;;;;;;17.50;100.00;101967.78;5277781;28;20086;-67
2022/08/31 03:02:42;;;;;;;3.60;1.83;;;;;;;17.50;100.00;101967.78;5276063;28;20386;-67
2022/08/31 03:05:14;;;;;;;3.45;2.03;;;;;;;17.43;100.00;101972.88;5278369;28;20028;-67
2022/08/31 03:07:45;;;;;;;3.65;2.38;;;;;;;17.42;100.00;101968.53;5277409;28;20069;-67
2022/08/31 03:10:20;;;;;;;3.42;1.80;;;;;;;17.44;100.00;101971.06;5277819;28;20020;-67
2022/08/31 03:12:52;;;;;;;3.33;2.20;;;;;;;17.33;100.00;101971.25;5278674;28;20047;-66
2022/08/31 03:15:25;;;;;;;3.53;2.03;;;;;;;17.31;100.00;101968.72;5278124;28;20491;-66
2022/08/31 03:17:56;;;;;;;;;;;;;;;17.90;94.31;101963.97;5277446;28;20405;-67
2022/08/31 03:20:27;;;;;;;3.20;1.63;;;;;;;17.26;100.00;101963.03;5277433;28;20461;-68
2022/08/31 03:22:59;;;;;;;3.33;2.13;;;;;;;17.22;100.00;101970.44;5278375;28;20366;-67
2022/08/31 03:25:30;;;;;;;6.88;2.00;;;;;;;17.29;100.00;101970.69;5278453;28;20036;-68
2022/08/31 03:28:02;;;;;;;4.78;2.00;;;;;;;17.24;100.00;101971.16;5260142;28;20020;-68
2022/08/31 03:30:33;;;;;;;3.28;2.28;;;;;;;17.18;100.00;101969.06;5277603;28;20100;-68
2022/08/31 03:33:05;;;;;;;3.53;2.08;;;;;;;17.22;100.00;101978.38;5277192;28;20399;-68
2022/08/31 03:35:36;;;;;;;2.92;1.95;;;;;;;17.26;99.56;101976.28;5276432;28;20491;-68
2022/08/31 03:38:08;;;;;;;2.80;2.13;;;;;;;17.21;100.00;101983.84;5277254;28;20115;-68
2022/08/31 03:40:41;;;;;;;4.65;2.47;;;;;;;17.14;100.00;101974.81;5275682;28;20123;-68
2022/08/31 03:43:13;;;;;;;4.75;1.95;;;;;;;17.06;100.00;101983.47;5275946;28;20100;-68
2022/08/31 03:45:44;;;;;;;3.20;2.15;;;;;;;17.05;100.00;101980.97;5277490;28;20561;-69
2022/08/31 03:48:16;;;;;;;3.60;1.83;;;;;;;17.05;100.00;101981.81;5276591;28;20020;-67
2022/08/31 03:50:47;;;;;;;4.32;2.00;;;;;;;17.05;100.00;101981.81;5275807;28;20020;-68
2022/08/31 03:53:19;;;;;;;3.90;2.15;;;;;;;17.10;100.00;101979.56;5273060;28;20040;-67
2022/08/31 03:55:50;;;;;;;3.38;2.13;;;;;;;17.04;100.00;101988.06;5274572;28;20042;-67
2022/08/31 03:58:21;;;;;;;4.97;2.17;;;;;;;16.99;100.00;101985.03;5275504;28;20403;-67
2022/08/31 04:00:53;;;;;;;3.17;1.90;;;;;;;16.95;100.00;101981.00;5274312;28;20102;-67
2022/08/31 04:03:24;;;;;;;3.35;1.98;;;;;;;16.88;100.00;101979.91;5275056;28;20031;-67
2022/08/31 04:05:55;;;;;;;2.83;1.88;;;;;;;16.80;100.00;101972.69;5272977;28;20092;-67
2022/08/31 04:08:27;;;;;;;3.17;2.00;;;;;;;16.86;100.00;101973.91;5275351;28;20514;-67
2022/08/31 04:10:59;;;;;;;4.00;1.65;;;;;;;16.80;100.00;101977.16;5276072;28;20039;-67
2022/08/31 04:13:31;;;;;;;3.17;1.90;;;;;;;16.85;100.00;101978.38;5277011;28;20672;-67
2022/08/31 04:16:05;;;;;;;2.60;1.60;;;;;;;16.75;100.00;101974.94;5276187;28;20036;-67
2022/08/31 04:18:41;;;;;;;3.67;2.10;;;;;;;16.76;100.00;101980.06;5277054;28;20016;-67
2022/08/31 04:21:19;;;;;;;3.17;1.80;;;;;;;16.75;100.00;101986.34;5277141;28;20560;-68
2022/08/31 04:23:52;;;;;;;2.95;1.80;;;;;;;16.69;100.00;101978.94;5275850;28;20021;-67
2022/08/31 04:26:32;;;;;;;3.15;1.80;;;;;;;16.84;99.77;101986.47;5275427;28;20524;-66
2022/08/31 04:29:04;;;;;;;5.40;2.22;;;;;;;16.71;99.15;101987.59;5274458;28;20100;-69
2022/08/31 04:31:36;;;;;;;3.15;1.67;;;;;;;16.71;98.59;101986.75;5276308;28;20020;-68
2022/08/31 04:34:08;;;;;;;3.20;1.90;;;;;;;16.66;98.22;101987.16;5274793;28;20040;-67
2022/08/31 04:36:39;;;;;;;4.00;1.80;;;;;;;16.66;97.80;101987.16;5275007;28;20375;-68
2022/08/31 04:39:11;;;;;;;4.20;2.17;;;;;;;16.63;97.82;101987.47;5276956;28;20028;-67
2022/08/31 04:41:43;;;;;;;3.75;2.25;;;;;;;16.63;97.72;101986.59;5275142;28;20024;-67
2022/08/31 04:44:14;;;;;;;5.53;1.90;;;;;;;16.56;97.62;101991.66;5274341;28;20036;-67
2022/08/31 04:46:45;;;;;;;3.53;2.17;;;;;;;16.50;97.49;101990.38;5277149;28;20016;-68
2022/08/31 04:49:17;;;;;;;3.55;2.13;;;;;;;16.54;97.17;101993.59;5275410;28;20046;-68
2022/08/31 04:51:48;;;;;;;3.25;1.85;;;;;;;16.28;98.60;101978.28;5274683;28;20055;-68
2022/08/31 04:54:19;;;;;;;3.83;2.05;;;;;;;16.36;98.39;101995.25;5274105;28;20035;-68
2022/08/31 04:56:51;;;;;;;3.92;2.00;;;;;;;16.32;98.71;102007.09;5274969;28;20024;-68
2022/08/31 04:59:24;;;;;;;2.58;1.80;;;;;;;16.30;98.78;101996.69;5274117;28;20344;-68
2022/08/31 05:01:57;;;;;;;4.43;2.20;;;;;;;16.25;98.82;102004.16;5273815;28;20045;-68
2022/08/31 05:04:28;;;;;;;4.93;2.10;;;;;;;16.27;98.96;101999.59;5274088;28;20372;-69
2022/08/31 05:07:00;;;;;;;2.65;1.70;;;;;;;16.16;98.33;101999.72;5275883;28;20028;-69
2022/08/31 05:09:31;;;;;;;4.50;1.90;;;;;;;16.14;97.78;101994.59;5256323;28;20024;-68
2022/08/31 05:12:03;;;;;;;2.85;1.90;;;;;;;16.08;97.83;101995.13;5254304;28;20024;-69
2022/08/31 05:14:34;;;;;;;3.03;1.60;;;;;;;16.17;97.11;101993.44;5275354;28;20082;-68
2022/08/31 05:17:06;;;;;;;4.80;1.88;;;;;;;16.06;97.15;102005.00;5274114;28;20058;-68
2022/08/31 05:19:38;;;;;;;4.38;2.17;;;;;;;16.08;96.74;102011.00;5274916;28;20024;-68
2022/08/31 05:22:10;;;;;;;3.47;1.80;;;;;;;15.99;96.43;101995.97;5249770;28;20033;-68
2022/08/31 05:24:41;;;;;;;5.30;1.80;;;;;;;16.01;96.39;102012.50;5274209;28;20012;-68
2022/08/31 05:27:13;;;;;;;2.57;1.77;;;;;;;16.02;95.70;102004.47;5273431;28;20143;-69
2022/08/31 05:29:44;;;;;;;4.15;1.90;;;;;;;16.01;95.40;102017.78;5274457;28;20266;-68
2022/08/31 05:32:15;;;;;;;4.50;2.10;;;;;;;16.02;94.69;102020.31;5273196;28;20032;-68
2022/08/31 05:34:46;;;;;;;5.22;1.88;;;;;;;16.01;94.83;102015.97;5273945;28;20040;-69
2022/08/31 05:37:18;;;;;;;3.22;1.95;;;;;;;15.97;94.94;102009.31;5271566;28;20046;-68
2022/08/31 05:39:49;;;;;;;6.20;2.00;;;;;;;15.99;94.07;102011.81;5273005;28;20029;-69
2022/08/31 05:42:20;;;;;;;5.20;1.90;;;;;;;16.04;93.11;102007.78;5274870;28;20072;-69
2022/08/31 05:44:51;;;;;;;5.40;1.80;;;;;;;16.04;92.31;102021.00;5273967;28;20297;-69
2022/08/31 05:47:23;;;;;;;3.63;1.75;;;;;;;16.07;92.61;102021.72;5268623;28;20032;-68
2022/08/31 05:49:54;;;;;;;2.67;1.73;;;;;;;16.03;91.72;102018.50;5274504;28;20102;-68
2022/08/31 05:52:26;;;;;;;4.70;2.13;;;;;;;16.05;89.64;102024.47;5272675;28;20036;-68
2022/08/31 05:54:57;;;;;;;4.68;1.83;;;;;;;16.08;90.25;102021.56;5273636;28;20163;-68
2022/08/31 05:57:28;;;;;;;3.95;1.70;;;;;;;16.08;90.17;102018.09;5273507;28;20033;-68
2022/08/31 06:00:00;;;;;;;4.90;1.50;;;;;;;16.02;89.57;102022.97;5272902;28;20024;-67
2022/08/31 06:02:31;;;;;;;6.65;1.55;;;;;;;16.06;89.33;102026.13;5274557;28;20035;-69
2022/08/31 06:05:02;;;;;;;5.22;1.52;;;;;;;16.08;89.34;102034.78;5274082;28;20406;-68
2022/08/31 06:07:34;;;;;;;2.67;1.60;;;;;;;16.11;88.53;102036.31;5273857;28;20032;-68
2022/08/31 06:10:05;;;;;;;2.80;1.58;;;;;;;16.17;87.57;102035.75;5273513;28;20024;-68
2022/08/31 06:12:37;;;;;;;5.28;1.75;;;;;;;16.16;86.51;102034.94;5255540;28;20028;-69
2022/08/31 06:15:10;;;;;;;6.60;1.80;;;;;;;16.25;86.89;102035.91;5275661;28;20149;-69
2022/08/31 06:17:43;;;;;;;4.45;1.60;;;;;;;16.32;86.42;102031.72;5274379;28;20025;-69
2022/08/31 06:20:16;;;;;;;3.78;2.05;;;;;;;16.27;86.18;102018.09;5278198;28;20033;-69
2022/08/31 06:22:47;;;;;;;3.42;1.60;;;;;;;16.42;84.83;102037.03;5276098;28;20032;-68
2022/08/31 06:25:18;;;;;;;5.10;2.00;;;;;;;16.45;84.45;102031.47;5279591;28;20013;-69
2022/08/31 06:27:50;;;;;;;2.58;1.65;;;;;;;16.62;85.16;102040.50;5278681;28;20036;-69
2022/08/31 06:30:25;;;;;;;5.10;1.83;;;;;;;16.68;83.17;102042.59;5278689;28;20012;-68
2022/08/31 06:32:57;;;;;;;3.55;1.67;;;;;;;16.78;82.01;102048.72;5258449;28;20024;-68
2022/08/31 06:35:28;;;;;;;3.05;1.80;;;;;;;16.82;79.71;102047.50;5278222;28;20028;-69
2022/08/31 06:37:59;;;;;;;3.17;1.40;;;;;;;16.98;80.88;102055.69;5276502;28;20029;-69
2022/08/31 06:40:31;;;;;;;3.47;1.70;;;;;;;17.10;77.90;102058.16;5270650;28;20036;-68
2022/08/31 06:43:03;;;;;;;3.90;1.65;;;;;;;17.07;76.19;102053.16;5276614;28;20286;-68
2022/08/31 06:45:34;;;;;;;2.95;1.40;;;;;;;17.15;76.59;102061.22;5277583;28;20024;-69
2022/08/31 06:48:06;;;;;;;2.53;1.58;;;;;;;17.29;76.74;102047.50;5278971;28;20426;-69
2022/08/31 06:50:40;;;;;;;4.78;1.58;;;;;;;17.39;75.61;102058.09;5275530;28;20391;-69
2022/08/31 06:53:11;;;;;;;4.20;1.70;;;;;;;17.34;74.00;102055.84;5278478;28;20024;-68
2022/08/31 06:55:42;;;;;;;6.60;1.70;;;;;;;17.48;74.32;102055.38;5277338;28;20041;-69
2022/08/31 06:58:13;;;;;;;4.77;1.70;;;;;;;17.67;73.59;102061.59;5276296;28;20036;-68
2022/08/31 07:00:46;;;;;;;4.22;1.73;;;;;;;17.56;72.09;102057.31;5276509;28;20302;-68
2022/08/31 07:03:31;;;;;;;;;;;;;;;18.27;71.17;102061.94;5276715;28;20028;-69
2022/08/31 07:06:09;;;;;;;4.25;1.52;;;;;;;17.94;69.56;102056.28;5278035;28;20288;-68
2022/08/31 07:08:43;;;;;;;2.83;1.60;;;;;;;17.93;69.55;102064.41;5275886;28;20110;-68
2022/08/31 07:11:35;;;;;;;5.40;1.67;;;;;;;18.23;68.59;102068.53;5272536;28;20040;-68
2022/08/31 07:14:13;;;;;;;3.90;1.38;;;;;;;18.13;67.91;102065.94;5276919;28;20090;-69
2022/08/31 07:16:44;;;;;;;4.22;1.85;;;;;;;18.07;67.17;102069.22;5278500;28;20494;-69
2022/08/31 07:19:16;;;;;;;4.20;1.83;;;;;;;18.28;67.42;102076.88;5277094;28;20104;-68
2022/08/31 07:21:51;;;;;;;3.58;1.30;;;;;;;18.23;65.93;102069.38;5276977;28;20032;-68
2022/08/31 07:24:27;;;;;;;4.53;1.60;;;;;;;18.34;66.81;102067.50;5278063;28;20020;-69
2022/08/31 07:27:03;;;;;;;3.67;1.52;;;;;;;18.38;66.19;102066.22;5275923;28;20030;-69
2022/08/31 07:29:39;;;;;;;3.58;1.63;;;;;;;18.48;65.66;102066.94;5274151;28;20062;-69
2022/08/31 07:32:12;;;;;;;3.10;1.20;;;;;;;18.52;64.36;102064.81;5276399;28;20094;-68
2022/08/31 07:34:44;;;;;;;3.88;1.30;;;;;;;18.59;63.77;102060.56;5277611;28;20078;-69
2022/08/31 07:42:55;;;;;;;3.83;1.52;;;;;;;18.90;63.00;102055.69;5276945;28;20083;-69
2022/08/31 07:45:26;;;;;;;5.65;1.55;;;;;;;19.12;63.41;102068.47;5276783;28;20467;-68
2022/08/31 07:47:59;;;;;;;1.92;1.40;;;;;;;19.22;62.52;102067.53;5276648;28;20027;-69
2022/08/31 07:50:30;;;;;;;6.43;1.67;;;;;;;19.22;61.14;102068.38;5278281;28;20137;-69
2022/08/31 07:53:02;;;;;;;4.88;1.60;;;;;;;19.15;60.54;102070.81;5276506;28;20137;-68
2022/08/31 07:55:34;;;;;;;3.30;1.60;;;;;;;19.15;60.55;102070.00;5277569;28;20033;-69
2022/08/31 07:58:14;;;;;;;3.00;1.60;;;;;;;19.27;60.97;102065.25;5277254;28;20028;-69
2022/08/31 08:00:48;;;;;;;3.08;1.42;;;;;;;19.40;60.25;102063.00;5276329;28;20606;-68
2022/08/31 08:03:19;;;;;;;5.93;1.63;;;;;;;19.39;60.58;102077.25;5275328;28;20051;-69
2022/08/31 08:05:52;;;;;;;2.90;1.23;;;;;;;19.58;60.71;102070.88;5276594;28;20491;-68
2022/08/31 08:08:23;;;;;;;3.70;1.33;;;;;;;19.63;59.75;102071.28;5277078;28;20021;-69
2022/08/31 08:10:55;;;;;;;3.17;1.43;;;;;;;19.72;59.75;102078.28;5273270;28;20495;-71
2022/08/31 08:13:26;;;;;;;5.78;1.95;;;;;;;19.97;59.92;102081.88;5275730;28;20028;-68
2022/08/31 08:15:57;;;;;;;2.80;1.40;;;;;;;20.00;58.92;102083.34;5275653;28;20035;-69
2022/08/31 08:18:28;;;;;;;5.77;1.70;;;;;;;20.08;58.99;102070.94;5276901;28;20300;-69
2022/08/31 08:21:00;;;;;;;4.80;1.77;;;;;;;20.09;58.54;102077.09;5274841;28;20391;-69
2022/08/31 08:23:31;;;;;;;4.67;1.50;;;;;;;20.37;58.73;102082.94;5276883;28;20027;-68
2022/08/31 08:26:07;;;;;;;4.78;1.70;;;;;;;20.45;58.60;102088.28;5277175;28;20016;-68
2022/08/31 08:28:39;;;;;;;4.18;1.30;;;;;;;20.29;58.46;102096.25;5276119;28;20081;-69
2022/08/31 08:31:13;;;;;;;3.77;1.57;;;;;;;20.31;58.82;102096.94;5276623;28;20024;-69
2022/08/31 08:33:45;;;;;;;5.32;1.85;;;;;;;20.16;58.66;102105.53;5276297;28;20056;-69
2022/08/31 08:36:18;;;;;;;2.80;1.53;;;;;;;20.23;58.88;102095.09;5276314;28;20550;-69
2022/08/31 08:38:52;;;;;;;3.67;1.70;;;;;;;20.34;60.13;102101.91;5275822;28;20028;-68
2022/08/31 08:41:26;;;;;;;2.40;1.67;;;;;;;20.26;58.61;102099.22;5274389;28;20020;-69
2022/08/31 08:44:00;;;;;;;4.55;1.90;;;;;;;20.31;59.28;102107.56;5275765;28;20025;-69
2022/08/31 08:46:38;;;;;;;4.80;2.15;;;;;;;20.35;59.85;102109.75;5274885;28;20035;-69
2022/08/31 08:49:23;;;;;;;7.93;2.05;;;;;;;20.38;59.00;102106.75;5274619;28;20055;-68
2022/08/31 08:52:01;;;;;;;5.63;2.00;;;;;;;20.32;59.62;102099.41;5275833;28;20028;-69
2022/08/31 08:54:40;;;;;;;4.43;2.03;;;;;;;20.54;59.58;102095.31;5274184;28;20024;-68
2022/08/31 08:57:15;;;;;;;3.88;1.80;;;;;;;20.63;58.13;102099.63;5274998;28;20024;-69
2022/08/31 08:59:49;;;;;;;3.80;2.17;;;;;;;20.68;59.06;102101.81;5275419;28;20020;-68
2022/08/31 09:02:29;;;;;;;4.82;2.40;;;;;;;20.94;58.91;102087.47;5273993;28;20036;-69
2022/08/31 09:05:29;;;;;;;6.25;2.40;;;;;;;21.29;56.48;102088.91;5276190;28;20019;-69
2022/08/31 09:08:16;;;;;;;5.25;1.98;;;;;;;21.24;56.57;102080.59;5275034;28;20036;-68
2022/08/31 09:11:16;;;;;;;5.00;2.42;;;;;;;21.46;56.25;102089.75;5274572;28;20115;-69
2022/08/31 09:14:09;;;;;;;6.90;2.08;;;;;;;21.52;55.46;102083.75;5275342;28;20089;-69
2022/08/31 09:16:50;;;;;;;4.50;2.28;;;;;;;21.56;55.66;102085.88;5275454;28;20398;-69
2022/08/31 09:19:22;;;;;;;6.07;2.00;;;;;;;21.56;53.85;102077.06;5274801;28;20033;-69
2022/08/31 09:21:56;;;;;;;6.17;2.53;;;;;;;21.68;54.08;102083.66;5274915;28;20086;-69
2022/08/31 09:24:29;;;;;;;5.53;2.22;;;;;;;21.73;54.22;102088.47;5274878;28;20036;-68
2022/08/31 09:27:16;;;;;;;3.60;2.22;;;;;;;21.89;53.72;102075.06;5275543;28;20012;-69
2022/08/31 09:29:59;;;;;;;5.15;2.22;;;;;;;22.15;54.64;102063.28;5253747;28;20036;-69
2022/08/31 09:32:34;;;;;;;8.23;2.85;;;;;;;21.98;53.86;102081.19;5275849;28;20016;-69
2022/08/31 09:35:24;;;;;;;6.40;3.03;;;;;;;22.20;53.85;102079.56;5274559;28;20135;-69
2022/08/31 09:38:02;;;;;;;7.72;2.65;;;;;;;22.32;53.90;102073.66;5274595;28;20025;-69
2022/08/31 09:40:38;;;;;;;7.38;2.55;;;;;;;22.48;53.34;102082.56;5273235;28;20032;-69
2022/08/31 09:43:13;;;;;;;6.82;3.03;;;;;;;22.57;52.91;102079.63;5274403;28;20055;-69
2022/08/31 09:45:55;;;;;;;5.45;2.88;;;;;;;22.92;53.02;102087.22;5275480;28;20067;-69
2022/08/31 09:48:38;;;;;;;5.22;2.60;;;;;;;;;;5274159;28;20067;-69
2022/08/31 09:51:25;;;;;;;4.20;2.90;;;;;;;22.93;52.42;102084.38;5275405;28;20107;-69
2022/08/31 09:56:57;;;;;;;6.57;2.80;;;;;;;22.85;51.66;102080.94;5273657;28;20486;-69
2022/08/31 09:59:42;;;;;;;3.67;3.22;;;;;;;23.18;52.66;102087.63;5275658;28;20368;-69
2022/08/31 10:02:21;;;;;;;6.93;3.25;;;;;;;22.97;52.53;102075.00;5271661;28;20655;-69
2022/08/31 10:05:04;;;;;;;7.75;2.92;;;;;;;22.97;52.77;102075.00;5273634;28;20115;-69
2022/08/31 10:07:51;;;;;;;7.95;3.20;;;;;;;23.01;52.88;102078.97;5276293;28;20027;-69
2022/08/31 10:10:26;;;;;;;8.20;3.25;;;;;;;23.02;51.76;102077.94;5272363;28;20383;-69
2022/08/31 10:13:14;;;;;;;5.80;3.10;;;;;;;23.22;51.76;102074.72;5273392;28;20078;-69
2022/08/31 10:15:52;;;;;;;4.55;3.05;;;;;;;23.30;50.84;102072.81;5274990;28;20487;-69
2022/08/31 10:18:42;;;;;;;6.70;3.53;;;;;;;23.46;50.34;102079.81;5272838;28;20028;-69
2022/08/31 10:21:23;;;;;;;5.30;3.15;;;;;;;23.53;50.39;102080.72;5274174;28;20105;-69
2022/08/31 10:24:07;;;;;;;6.55;3.20;;;;;;;23.75;50.54;102064.75;5274587;28;20016;-69
2022/08/31 10:26:45;;;;;;;7.13;3.35;;;;;;;23.87;50.01;102068.63;5273394;28;20024;-69
2022/08/31 10:29:42;;;;;;;9.05;3.28;;;;;;;23.98;48.90;102060.13;5273168;28;20074;-69
2022/08/31 10:32:32;;;;;;;8.63;3.88;;;;;;;24.04;49.19;102069.22;5272414;28;20032;-69
2022/08/31 10:35:11;;;;;;;6.05;3.50;;;;;;;24.09;48.04;102071.31;5273171;28;20118;-68
2022/08/31 10:37:57;;;;;;;3.72;3.03;;;;;;;24.07;48.54;102063.50;5274326;28;20024;-69
2022/08/31 10:40:39;;;;;;;6.95;3.50;;;;;;;23.90;48.55;102068.22;5273589;28;20414;-69
2022/08/31 10:43:21;;;;;;;8.70;3.25;;;;;;;24.03;48.70;102060.38;5272925;28;20115;-69
2022/08/31 10:45:52;;;;;;;9.63;4.40;;;;;;;24.00;48.28;102065.25;5272096;28;20017;-69
2022/08/31 10:48:26;;;;;;;6.03;3.30;;;;;;;23.95;48.76;102059.66;5272498;28;20028;-69
2022/08/31 10:51:08;;;;;;;10.30;3.60;;;;;;;24.04;49.01;102055.84;5274286;28;20456;-69
2022/08/31 10:53:55;;;;;;;9.87;2.90;;;;;;;24.40;48.16;102058.50;5274511;28;20082;-69
2022/08/31 10:56:40;;;;;;;8.52;3.70;;;;;;;24.26;48.27;102048.66;5254943;28;20467;-69
2022/08/31 10:59:33;;;;;;;7.00;3.58;;;;;;;24.45;48.57;102052.56;5274054;28;20483;-69
2022/08/31 11:02:41;;;;;;;7.13;3.30;;;;;;;24.63;47.94;102054.78;5269643;28;20135;-69
2022/08/31 11:05:32;;;;;;;4.63;3.85;;;;;;;24.80;48.13;102053.47;5270054;28;20041;-69
2022/08/31 11:08:38;;;;;;;5.57;3.88;;;;;;;24.86;47.27;102044.66;5270456;28;20483;-69
2022/08/31 11:11:18;;;;;;;4.60;3.20;;;;;;;24.85;46.95;102047.50;5268715;28;20044;-69
2022/08/31 11:14:04;;;;;;;7.80;3.90;;;;;;;24.88;47.32;102044.44;5272023;28;20017;-69
2022/08/31 11:17:18;;;;;;;7.45;3.92;;;;;;;25.03;46.75;102034.44;5271719;28;20059;-69
2022/08/31 11:20:23;;;;;;;6.70;3.95;;;;;;;25.11;46.84;102050.38;5267002;28;20044;-69
2022/08/31 11:23:25;;;;;;;6.95;3.55;;;;;;;25.26;46.50;102050.28;5272689;28;20024;-69
2022/08/31 11:26:25;;;;;;;7.70;3.45;;;;;;;25.28;46.24;102053.59;5258131;28;20028;-69
2022/08/31 11:29:21;;;;;;;6.53;3.25;;;;;;;25.33;46.21;102059.19;5274144;28;20032;-69
2022/08/31 11:31:53;;;;;;;5.45;3.40;;;;;;;25.14;45.86;102044.63;5251827;28;20029;-69
2022/08/31 11:34:28;;;;;;;5.43;3.05;;;;;;;25.12;45.95;102043.19;5271306;28;20021;-69
2022/08/31 11:37:03;;;;;;;8.02;3.88;;;;;;;25.17;45.55;102036.19;5252510;28;20029;-70
2022/08/31 11:39:39;;;;;;;5.18;3.50;;;;;;;25.34;46.19;102034.00;5273112;28;20118;-69
2022/08/31 11:42:31;;;;;;;7.00;3.63;;;;;;;25.58;45.06;102039.91;5275077;28;20553;-69
2022/08/31 11:45:05;;;;;;;7.07;3.27;;;;;;;25.52;45.61;102043.38;5262196;28;20032;-69
2022/08/31 11:47:42;;;;;;;4.93;3.30;;;;;;;25.61;45.56;102026.06;5274167;28;20525;-69
2022/08/31 11:50:22;;;;;;;7.78;3.58;;;;;;;25.58;45.12;102035.38;5271647;28;20028;-69
2022/08/31 11:52:54;;;;;;;6.60;3.30;;;;;;;25.48;44.76;102024.16;5273798;28;20029;-69
2022/08/31 11:55:29;;;;;;;6.70;3.37;;;;;;;25.66;44.57;102018.25;5272968;28;20861;-69
2022/08/31 11:58:05;;;;;;;6.00;3.75;;;;;;;25.64;44.03;102026.50;5275044;28;20693;-69
2022/08/31 12:01:10;;;;;;;7.25;3.28;;;;;;;25.96;43.89;102013.41;5271095;28;20041;-70
2022/08/31 12:03:51;;;;;;;6.57;3.38;;;;;;;25.82;43.49;102017.91;5273165;28;20036;-70
2022/08/31 12:06:26;;;;;;;6.13;3.45;;;;;;;25.85;43.70;102014.84;5273699;28;20069;-70
2022/08/31 12:09:01;;;;;;;5.03;3.53;;;;;;;25.87;43.70;102015.44;5272321;28;20052;-70
2022/08/31 12:11:46;;;;;;;6.15;2.90;;;;;;;26.03;43.75;102002.69;5274658;28;20021;-69
2022/08/31 12:14:28;;;;;;;6.65;3.50;;;;;;;26.23;43.26;102000.84;5273960;28;20031;-69